MMMM

General Francisco J. Mujica International Airport

Airport
ICAO code
MMMM
IATA Code
MLM
Summary
ICAO Region
CARSAM
ICAO Territory
Location

Alvaro Obregon, Michoacan de Ocampo

Serving
Morelia
Elevation
6033 ft
Coordinates
19° 50' 60" N , 101° 1' 32" W
KCC
Metar
MMMM 300842Z 00000KT 7SM FEW300 12/11 A3024 RMK SLP095 57008 961 8/002 HZY AC

General Francisco Mujica International Airport, or simply Morelia International Airport, is an international airport in Álvaro Obregón, Michoacán, Mexico, near Morelia.

Climatology

Subtropical Highland climate (Köppen climate classification Cwb)

Runways

Designator Length Width Surface Rops
5/23 3400 45 ASP Yes/Yes

Airport map

Aerial View

SKYbrary Partners:

Safety knowledge contributed by: